Startpagina
METAR-TAF:

METAR-TAF

Vliegvelden :

Mfuwe, Zambia

breedte: 13-15-32S, lengte: 031-56-12E, hoogte: 573 m

METAR: ontbreekt

Tijdstip: 15:56 (13:56 UTC)

Verwachting

Dit bericht is 9 uur en het 56 minuten geleden gemaakt, om 04:00 UTC
Verwachting geldig van 23 om 06 UTC tot 24 om 12 UTC
Wind 10 kt uit het zuidoosten
Zicht: 9000 m
Onbewolkt
Heiigheid
Van 23 om 1800 UTC
Wind 5 kt uit het oosten
Zicht 10 km of meer
geen wolken onder 1500 m en geen cumulonimbus

TAF: FLMF 230400Z 2306/2412 13010KT 9000 HZ SKC FM231800 10005KT CAVOK

Waarnemingen en weersverwachtingen van meer dan 4000 vliegvelden (METAR en TAF).

De beschikbare stations zijn de gele en rode punten op de kaart.

Ga met uw muis naar het station om de naam te zien.

Klik dan om waarnemingen en weersverwachtingen te zien.

kaart wijzigen: klik op de groene knoppen met een zwart kruis om in te zoomen, op de groene knop met een streepje om uit te zoomen of op de groene pijlen voor aangrenzende kaarten.


METAR-TAF: